sensor_id;sensor_type;location;lat;lon;timestamp;pressure;altitude;pressure_sealevel;temperature;humidity
44138;BME280;29800;55.942;37.314;2024-01-27T00:00:40;99307.22;;;-2.65;67.56
44138;BME280;29800;55.942;37.314;2024-01-27T00:03:06;99304.69;;;-2.66;67.96
44138;BME280;29800;55.942;37.314;2024-01-27T00:05:32;99302.66;;;-2.64;68.03
44138;BME280;29800;55.942;37.314;2024-01-27T00:07:59;99309.53;;;-2.62;67.84
44138;BME280;29800;55.942;37.314;2024-01-27T00:10:25;99312.69;;;-2.58;67.86
44138;BME280;29800;55.942;37.314;2024-01-27T00:12:51;99311.34;;;-2.54;67.58
44138;BME280;29800;55.942;37.314;2024-01-27T00:15:17;99312.00;;;-2.52;67.29
44138;BME280;29800;55.942;37.314;2024-01-27T00:17:44;99315.03;;;-2.55;67.35
44138;BME280;29800;55.942;37.314;2024-01-27T00:20:10;99312.34;;;-2.55;67.60
44138;BME280;29800;55.942;37.314;2024-01-27T00:22:36;99310.66;;;-2.56;67.30
44138;BME280;29800;55.942;37.314;2024-01-27T00:25:03;99307.50;;;-2.60;67.47
44138;BME280;29800;55.942;37.314;2024-01-27T00:27:29;99304.66;;;-2.58;67.59
44138;BME280;29800;55.942;37.314;2024-01-27T00:29:56;99320.25;;;-2.62;67.48
44138;BME280;29800;55.942;37.314;2024-01-27T00:32:22;99321.25;;;-2.63;67.80
44138;BME280;29800;55.942;37.314;2024-01-27T00:34:48;99316.75;;;-2.62;67.63
44138;BME280;29800;55.942;37.314;2024-01-27T00:37:14;99322.63;;;-2.67;68.12
44138;BME280;29800;55.942;37.314;2024-01-27T00:39:40;99319.09;;;-2.67;67.78
44138;BME280;29800;55.942;37.314;2024-01-27T00:42:07;99321.78;;;-2.67;67.74
44138;BME280;29800;55.942;37.314;2024-01-27T00:44:33;99320.28;;;-2.70;67.74
44138;BME280;29800;55.942;37.314;2024-01-27T00:46:59;99323.97;;;-2.71;67.32
44138;BME280;29800;55.942;37.314;2024-01-27T00:49:25;99320.81;;;-2.74;67.62
44138;BME280;29800;55.942;37.314;2024-01-27T00:51:51;99329.53;;;-2.81;67.50
44138;BME280;29800;55.942;37.314;2024-01-27T00:54:17;99333.25;;;-2.82;67.97
44138;BME280;29800;55.942;37.314;2024-01-27T00:56:43;99326.69;;;-2.79;68.08
44138;BME280;29800;55.942;37.314;2024-01-27T00:59:10;99333.22;;;-2.73;67.51
44138;BME280;29800;55.942;37.314;2024-01-27T01:01:36;99317.13;;;-2.73;67.79
44138;BME280;29800;55.942;37.314;2024-01-27T01:04:02;99319.47;;;-2.70;67.67
44138;BME280;29800;55.942;37.314;2024-01-27T01:06:28;99325.53;;;-2.77;67.89
44138;BME280;29800;55.942;37.314;2024-01-27T01:08:55;99323.34;;;-2.81;67.83
44138;BME280;29800;55.942;37.314;2024-01-27T01:11:21;99329.53;;;-2.81;67.91
44138;BME280;29800;55.942;37.314;2024-01-27T01:13:47;99323.84;;;-2.78;68.03
44138;BME280;29800;55.942;37.314;2024-01-27T01:16:13;99334.91;;;-2.81;67.92
44138;BME280;29800;55.942;37.314;2024-01-27T01:18:40;99336.94;;;-2.83;67.97
44138;BME280;29800;55.942;37.314;2024-01-27T01:21:06;99324.00;;;-2.79;68.11
44138;BME280;29800;55.942;37.314;2024-01-27T01:23:32;99325.53;;;-2.77;67.97
44138;BME280;29800;55.942;37.314;2024-01-27T01:25:58;99328.03;;;-2.75;68.27
44138;BME280;29800;55.942;37.314;2024-01-27T01:28:24;99325.22;;;-2.82;68.30
44138;BME280;29800;55.942;37.314;2024-01-27T01:30:51;99327.03;;;-2.82;67.86
44138;BME280;29800;55.942;37.314;2024-01-27T01:33:17;99335.25;;;-2.84;68.12
44138;BME280;29800;55.942;37.314;2024-01-27T01:35:43;99339.28;;;-2.88;68.38
44138;BME280;29800;55.942;37.314;2024-01-27T01:38:10;99330.94;;;-2.93;68.13
44138;BME280;29800;55.942;37.314;2024-01-27T01:40:36;99334.63;;;-2.94;68.20
44138;BME280;29800;55.942;37.314;2024-01-27T01:43:02;99341.66;;;-2.93;68.88
44138;BME280;29800;55.942;37.314;2024-01-27T01:45:30;99336.97;;;-2.99;68.46
44138;BME280;29800;55.942;37.314;2024-01-27T01:47:56;99342.19;;;-3.06;68.74
44138;BME280;29800;55.942;37.314;2024-01-27T01:50:22;99333.03;;;-3.11;69.08
44138;BME280;29800;55.942;37.314;2024-01-27T01:52:49;99331.34;;;-3.12;69.37
44138;BME280;29800;55.942;37.314;2024-01-27T01:55:15;99335.00;;;-3.14;68.97
44138;BME280;29800;55.942;37.314;2024-01-27T01:57:43;99327.66;;;-3.11;68.85
44138;BME280;29800;55.942;37.314;2024-01-27T02:00:10;99334.34;;;-3.16;69.50
44138;BME280;29800;55.942;37.314;2024-01-27T02:02:39;99337.38;;;-3.19;69.23
44138;BME280;29800;55.942;37.314;2024-01-27T02:05:06;99338.03;;;-3.25;69.53
44138;BME280;29800;55.942;37.314;2024-01-27T02:07:34;99345.09;;;-3.24;69.11
44138;BME280;29800;55.942;37.314;2024-01-27T02:10:01;99349.09;;;-3.20;69.93
44138;BME280;29800;55.942;37.314;2024-01-27T02:12:31;99347.09;;;-3.18;69.66
44138;BME280;29800;55.942;37.314;2024-01-27T02:14:57;99344.06;;;-3.15;69.48
44138;BME280;29800;55.942;37.314;2024-01-27T02:17:24;99349.09;;;-3.11;69.70
44138;BME280;29800;55.942;37.314;2024-01-27T02:19:50;99346.41;;;-3.11;69.55
44138;BME280;29800;55.942;37.314;2024-01-27T02:22:16;99354.25;;;-3.10;69.47
44138;BME280;29800;55.942;37.314;2024-01-27T02:24:42;99353.91;;;-3.07;69.36
44138;BME280;29800;55.942;37.314;2024-01-27T02:27:08;99361.44;;;-3.02;68.98
44138;BME280;29800;55.942;37.314;2024-01-27T02:29:35;99359.41;;;-3.00;69.04
44138;BME280;29800;55.942;37.314;2024-01-27T02:32:01;99367.44;;;-3.00;68.80
44138;BME280;29800;55.942;37.314;2024-01-27T02:34:27;99370.47;;;-2.95;69.29
44138;BME280;29800;55.942;37.314;2024-01-27T02:36:53;99374.63;;;-2.92;69.17
44138;BME280;29800;55.942;37.314;2024-01-27T02:39:20;99368.09;;;-2.90;68.74
44138;BME280;29800;55.942;37.314;2024-01-27T02:41:48;99372.78;;;-2.92;68.50
44138;BME280;29800;55.942;37.314;2024-01-27T02:44:14;99368.44;;;-2.93;68.81
44138;BME280;29800;55.942;37.314;2024-01-27T02:46:40;99371.63;;;-2.98;68.77
44138;BME280;29800;55.942;37.314;2024-01-27T02:49:08;99373.47;;;-2.98;68.92
44138;BME280;29800;55.942;37.314;2024-01-27T02:51:34;99371.78;;;-2.91;68.62
44138;BME280;29800;55.942;37.314;2024-01-27T02:54:01;99365.59;;;-2.91;68.69
44138;BME280;29800;55.942;37.314;2024-01-27T02:56:27;99372.13;;;-2.94;68.59
44138;BME280;29800;55.942;37.314;2024-01-27T02:58:53;99373.81;;;-2.93;68.88
44138;BME280;29800;55.942;37.314;2024-01-27T03:01:19;99376.66;;;-2.94;68.55
44138;BME280;29800;55.942;37.314;2024-01-27T03:03:45;99379.50;;;-2.96;68.74
44138;BME280;29800;55.942;37.314;2024-01-27T03:06:11;99389.38;;;-2.97;68.91
44138;BME280;29800;55.942;37.314;2024-01-27T03:08:37;99385.69;;;-2.96;68.56
44138;BME280;29800;55.942;37.314;2024-01-27T03:11:04;99384.50;;;-2.93;68.91
44138;BME280;29800;55.942;37.314;2024-01-27T03:13:30;99381.50;;;-2.90;68.53
44138;BME280;29800;55.942;37.314;2024-01-27T03:15:56;99384.81;;;-2.88;68.47
44138;BME280;29800;55.942;37.314;2024-01-27T03:18:22;99386.16;;;-2.92;68.60
44138;BME280;29800;55.942;37.314;2024-01-27T03:20:50;99384.50;;;-2.93;68.58
44138;BME280;29800;55.942;37.314;2024-01-27T03:23:17;99379.16;;;-2.93;68.59
44138;BME280;29800;55.942;37.314;2024-01-27T03:25:43;99382.19;;;-2.96;68.76
44138;BME280;29800;55.942;37.314;2024-01-27T03:28:09;99383.50;;;-3.00;68.74
44138;BME280;29800;55.942;37.314;2024-01-27T03:30:35;99387.53;;;-3.04;68.45
44138;BME280;29800;55.942;37.314;2024-01-27T03:33:01;99388.22;;;-3.10;68.86
44138;BME280;29800;55.942;37.314;2024-01-27T03:35:27;99387.25;;;-3.18;69.34
44138;BME280;29800;55.942;37.314;2024-01-27T03:37:54;99383.22;;;-3.22;69.09
44138;BME280;29800;55.942;37.314;2024-01-27T03:40:20;99392.28;;;-3.23;69.56
44138;BME280;29800;55.942;37.314;2024-01-27T03:42:47;99399.28;;;-3.22;69.36
44138;BME280;29800;55.942;37.314;2024-01-27T03:45:13;99396.59;;;-3.22;69.13
44138;BME280;29800;55.942;37.314;2024-01-27T03:47:39;99401.97;;;-3.22;69.46
44138;BME280;29800;55.942;37.314;2024-01-27T03:50:06;99405.13;;;-3.26;69.28
44138;BME280;29800;55.942;37.314;2024-01-27T03:52:32;99409.66;;;-3.27;69.96
44138;BME280;29800;55.942;37.314;2024-01-27T03:54:58;99409.66;;;-3.27;69.64
44138;BME280;29800;55.942;37.314;2024-01-27T03:57:25;99413.38;;;-3.28;69.54
44138;BME280;29800;55.942;37.314;2024-01-27T03:59:51;99410.00;;;-3.30;70.00
44138;BME280;29800;55.942;37.314;2024-01-27T04:02:17;99414.38;;;-3.29;69.57
44138;BME280;29800;55.942;37.314;2024-01-27T04:04:43;99411.34;;;-3.26;69.67
44138;BME280;29800;55.942;37.314;2024-01-27T04:07:09;99413.69;;;-3.23;69.85
44138;BME280;29800;55.942;37.314;2024-01-27T04:09:36;99418.03;;;-3.22;69.55
44138;BME280;29800;55.942;37.314;2024-01-27T04:12:02;99413.34;;;-3.20;69.80
44138;BME280;29800;55.942;37.314;2024-01-27T04:14:28;99421.72;;;-3.23;69.29
44138;BME280;29800;55.942;37.314;2024-01-27T04:16:55;99430.75;;;-3.24;69.24
44138;BME280;29800;55.942;37.314;2024-01-27T04:19:21;99431.41;;;-3.30;69.37
44138;BME280;29800;55.942;37.314;2024-01-27T04:21:47;99432.59;;;-3.33;69.81
44138;BME280;29800;55.942;37.314;2024-01-27T04:24:14;99431.75;;;-3.33;69.43
44138;BME280;29800;55.942;37.314;2024-01-27T04:26:40;99439.44;;;-3.38;69.87
44138;BME280;29800;55.942;37.314;2024-01-27T04:29:07;99437.09;;;-3.41;69.68
44138;BME280;29800;55.942;37.314;2024-01-27T04:31:38;99437.97;;;-3.49;69.46
44138;BME280;29800;55.942;37.314;2024-01-27T04:34:04;99441.63;;;-3.58;69.74
44138;BME280;29800;55.942;37.314;2024-01-27T04:36:31;99435.94;;;-3.63;70.06
44138;BME280;29800;55.942;37.314;2024-01-27T04:38:57;99449.47;;;-3.65;69.87
44138;BME280;29800;55.942;37.314;2024-01-27T04:41:23;99441.13;;;-3.70;70.11
44138;BME280;29800;55.942;37.314;2024-01-27T04:43:49;99451.16;;;-3.72;70.42
44138;BME280;29800;55.942;37.314;2024-01-27T04:46:16;99453.44;;;-3.77;70.50
44138;BME280;29800;55.942;37.314;2024-01-27T04:48:43;99447.44;;;-3.79;70.32
44138;BME280;29800;55.942;37.314;2024-01-27T04:51:10;99458.13;;;-3.79;70.43
44138;BME280;29800;55.942;37.314;2024-01-27T04:53:36;99451.13;;;-3.80;70.78
44138;BME280;29800;55.942;37.314;2024-01-27T04:56:02;99461.84;;;-3.80;70.59
44138;BME280;29800;55.942;37.314;2024-01-27T04:58:36;99457.63;;;-3.83;70.49
44138;BME280;29800;55.942;37.314;2024-01-27T05:01:02;99462.47;;;-3.86;70.88
44138;BME280;29800;55.942;37.314;2024-01-27T05:03:29;99472.16;;;-3.85;70.40
44138;BME280;29800;55.942;37.314;2024-01-27T05:05:55;99464.13;;;-3.85;70.84
44138;BME280;29800;55.942;37.314;2024-01-27T05:08:21;99467.66;;;-3.85;70.50
44138;BME280;29800;55.942;37.314;2024-01-27T05:10:47;99468.34;;;-3.83;70.95
44138;BME280;29800;55.942;37.314;2024-01-27T05:13:13;99475.69;;;-3.85;70.44
44138;BME280;29800;55.942;37.314;2024-01-27T05:15:40;99469.66;;;-3.87;70.32
44138;BME280;29800;55.942;37.314;2024-01-27T05:18:06;99479.19;;;-3.93;70.15
44138;BME280;29800;55.942;37.314;2024-01-27T05:20:32;99480.16;;;-3.94;70.53
44138;BME280;29800;55.942;37.314;2024-01-27T05:22:58;99480.84;;;-3.92;70.63
44138;BME280;29800;55.942;37.314;2024-01-27T05:25:24;99492.88;;;-3.96;70.27
44138;BME280;29800;55.942;37.314;2024-01-27T05:27:51;99503.72;;;-3.97;70.52
44138;BME280;29800;55.942;37.314;2024-01-27T05:30:17;99500.53;;;-4.01;70.29
44138;BME280;29800;55.942;37.314;2024-01-27T05:32:43;99507.03;;;-4.03;70.81
44138;BME280;29800;55.942;37.314;2024-01-27T05:35:09;99505.84;;;-4.09;70.88
44138;BME280;29800;55.942;37.314;2024-01-27T05:37:36;99509.34;;;-4.09;70.93
44138;BME280;29800;55.942;37.314;2024-01-27T05:40:06;99511.72;;;-4.06;70.66
44138;BME280;29800;55.942;37.314;2024-01-27T05:42:32;99508.88;;;-4.04;70.84
44138;BME280;29800;55.942;37.314;2024-01-27T05:44:59;99513.91;;;-4.01;70.78
44138;BME280;29800;55.942;37.314;2024-01-27T05:47:25;99518.09;;;-3.98;71.04
44138;BME280;29800;55.942;37.314;2024-01-27T05:49:51;99517.25;;;-3.99;70.74
44138;BME280;29800;55.942;37.314;2024-01-27T05:52:18;99524.97;;;-3.96;70.71
44138;BME280;29800;55.942;37.314;2024-01-27T05:54:44;99527.00;;;-3.90;70.88
44138;BME280;29800;55.942;37.314;2024-01-27T05:57:11;99529.19;;;-3.85;70.16
44138;BME280;29800;55.942;37.314;2024-01-27T05:59:37;99520.47;;;-3.87;69.84
44138;BME280;29800;55.942;37.314;2024-01-27T06:02:03;99522.47;;;-3.89;70.03
44138;BME280;29800;55.942;37.314;2024-01-27T06:04:29;99532.03;;;-3.86;69.99
44138;BME280;29800;55.942;37.314;2024-01-27T06:06:57;99527.19;;;-3.83;70.37
44138;BME280;29800;55.942;37.314;2024-01-27T06:09:23;99539.22;;;-3.79;70.22
44138;BME280;29800;55.942;37.314;2024-01-27T06:11:49;99533.88;;;-3.79;69.93
44138;BME280;29800;55.942;37.314;2024-01-27T06:14:16;99538.06;;;-3.76;70.17
44138;BME280;29800;55.942;37.314;2024-01-27T06:16:43;99540.75;;;-3.76;69.64
44138;BME280;29800;55.942;37.314;2024-01-27T06:19:09;99542.91;;;-3.80;70.03
44138;BME280;29800;55.942;37.314;2024-01-27T06:21:35;99543.41;;;-3.76;69.79
44138;BME280;29800;55.942;37.314;2024-01-27T06:24:01;99544.59;;;-3.71;69.41
44138;BME280;29800;55.942;37.314;2024-01-27T06:26:28;99543.59;;;-3.70;69.47
44138;BME280;29800;55.942;37.314;2024-01-27T06:28:54;99548.13;;;-3.70;69.53
44138;BME280;29800;55.942;37.314;2024-01-27T06:31:20;99544.78;;;-3.72;69.49
44138;BME280;29800;55.942;37.314;2024-01-27T06:33:47;99544.06;;;-3.74;69.19
44138;BME280;29800;55.942;37.314;2024-01-27T06:36:13;99543.09;;;-3.73;69.51
44138;BME280;29800;55.942;37.314;2024-01-27T06:38:39;99548.75;;;-3.76;69.58
44138;BME280;29800;55.942;37.314;2024-01-27T06:41:05;99547.94;;;-3.77;69.37
44138;BME280;29800;55.942;37.314;2024-01-27T06:43:31;99548.75;;;-3.76;69.63
44138;BME280;29800;55.942;37.314;2024-01-27T06:45:57;99556.47;;;-3.73;69.61
44138;BME280;29800;55.942;37.314;2024-01-27T06:48:24;99553.16;;;-3.67;69.43
44138;BME280;29800;55.942;37.314;2024-01-27T06:50:52;99556.00;;;-3.68;69.17
44138;BME280;29800;55.942;37.314;2024-01-27T06:53:19;99563.31;;;-3.71;68.90
44138;BME280;29800;55.942;37.314;2024-01-27T06:55:46;99558.63;;;-3.77;69.43
44138;BME280;29800;55.942;37.314;2024-01-27T06:58:12;99570.16;;;-3.76;69.78
44138;BME280;29800;55.942;37.314;2024-01-27T07:00:38;99570.50;;;-3.71;68.97
44138;BME280;29800;55.942;37.314;2024-01-27T07:03:05;99561.84;;;-3.65;69.30
44138;BME280;29800;55.942;37.314;2024-01-27T07:05:31;99568.22;;;-3.58;69.25
44138;BME280;29800;55.942;37.314;2024-01-27T07:08:00;99574.94;;;-3.54;69.04
44138;BME280;29800;55.942;37.314;2024-01-27T07:10:26;99585.63;;;-3.54;68.54
44138;BME280;29800;55.942;37.314;2024-01-27T07:12:52;99584.81;;;-3.54;68.81
44138;BME280;29800;55.942;37.314;2024-01-27T07:15:19;99586.44;;;-3.53;68.56
44138;BME280;29800;55.942;37.314;2024-01-27T07:17:47;99601.69;;;-3.54;68.53
44138;BME280;29800;55.942;37.314;2024-01-27T07:20:14;99591.31;;;-3.57;68.56
44138;BME280;29800;55.942;37.314;2024-01-27T07:22:40;99610.03;;;-3.57;68.80
44138;BME280;29800;55.942;37.314;2024-01-27T07:25:06;99613.03;;;-3.60;68.38
44138;BME280;29800;55.942;37.314;2024-01-27T07:27:36;99617.38;;;-3.59;68.69
44138;BME280;29800;55.942;37.314;2024-01-27T07:30:03;99617.22;;;-3.57;68.92
44138;BME280;29800;55.942;37.314;2024-01-27T07:32:30;99620.06;;;-3.59;68.52
44138;BME280;29800;55.942;37.314;2024-01-27T07:34:57;99627.41;;;-3.61;68.63
44138;BME280;29800;55.942;37.314;2024-01-27T07:37:23;99620.06;;;-3.59;68.89
44138;BME280;29800;55.942;37.314;2024-01-27T07:39:49;99620.25;;;-3.52;68.96
44138;BME280;29800;55.942;37.314;2024-01-27T07:42:16;99620.75;;;-3.48;68.73
44138;BME280;29800;55.942;37.314;2024-01-27T07:44:42;99618.28;;;-3.42;68.82
44138;BME280;29800;55.942;37.314;2024-01-27T07:47:09;99620.94;;;-3.42;68.73
44138;BME280;29800;55.942;37.314;2024-01-27T07:49:35;99626.81;;;-3.38;68.31
44138;BME280;29800;55.942;37.314;2024-01-27T07:52:01;99629.16;;;-3.35;68.10
44138;BME280;29800;55.942;37.314;2024-01-27T07:54:28;99630.84;;;-3.34;68.37
44138;BME280;29800;55.942;37.314;2024-01-27T07:56:55;99624.47;;;-3.33;67.57
44138;BME280;29800;55.942;37.314;2024-01-27T07:59:21;99636.88;;;-3.32;67.92
44138;BME280;29800;55.942;37.314;2024-01-27T08:01:47;99641.25;;;-3.31;68.14
44138;BME280;29800;55.942;37.314;2024-01-27T08:04:13;99646.44;;;-3.29;67.64
44138;BME280;29800;55.942;37.314;2024-01-27T08:06:49;99642.59;;;-3.19;68.14
44138;BME280;29800;55.942;37.314;2024-01-27T08:09:17;99652.31;;;-3.18;67.91
44138;BME280;29800;55.942;37.314;2024-01-27T08:11:44;99655.97;;;-3.19;67.66
44138;BME280;29800;55.942;37.314;2024-01-27T08:14:11;99657.66;;;-3.18;67.60
44138;BME280;29800;55.942;37.314;2024-01-27T08:16:37;99659.16;;;-3.15;67.53
44138;BME280;29800;55.942;37.314;2024-01-27T08:19:04;99658.69;;;-3.10;67.63
44138;BME280;29800;55.942;37.314;2024-01-27T08:21:31;99659.03;;;-3.05;68.04
44138;BME280;29800;55.942;37.314;2024-01-27T08:23:57;99660.88;;;-2.98;67.49
44138;BME280;29800;55.942;37.314;2024-01-27T08:26:24;99656.69;;;-3.00;67.65
44138;BME280;29800;55.942;37.314;2024-01-27T08:28:50;99663.41;;;-2.96;67.69
44138;BME280;29800;55.942;37.314;2024-01-27T08:31:17;99660.25;;;-2.91;67.48
44138;BME280;29800;55.942;37.314;2024-01-27T08:33:43;99661.41;;;-2.86;67.48
44138;BME280;29800;55.942;37.314;2024-01-27T08:36:13;99664.59;;;-2.82;67.62
44138;BME280;29800;55.942;37.314;2024-01-27T08:38:40;99661.41;;;-2.86;67.38
44138;BME280;29800;55.942;37.314;2024-01-27T08:41:07;99668.63;;;-2.86;67.38
44138;BME280;29800;55.942;37.314;2024-01-27T08:43:34;99663.59;;;-2.89;67.13
44138;BME280;29800;55.942;37.314;2024-01-27T08:46:00;99667.09;;;-2.89;67.53
44138;BME280;29800;55.942;37.314;2024-01-27T08:48:26;99663.75;;;-2.91;67.13
44138;BME280;29800;55.942;37.314;2024-01-27T08:50:52;99673.47;;;-2.90;67.84
44138;BME280;29800;55.942;37.314;2024-01-27T08:53:19;99655.53;;;-2.89;67.29
44138;BME280;29800;55.942;37.314;2024-01-27T08:55:46;99669.78;;;-2.89;67.16
44138;BME280;29800;55.942;37.314;2024-01-27T08:58:12;99668.13;;;-2.90;67.48
44138;BME280;29800;55.942;37.314;2024-01-27T09:00:39;99662.75;;;-2.90;67.17
44138;BME280;29800;55.942;37.314;2024-01-27T09:03:06;99663.41;;;-2.88;67.60
44138;BME280;29800;55.942;37.314;2024-01-27T09:05:33;99657.25;;;-2.88;67.28
44138;BME280;29800;55.942;37.314;2024-01-27T09:07:59;99658.41;;;-2.83;67.19
44138;BME280;29800;55.942;37.314;2024-01-27T09:10:26;99657.09;;;-2.70;67.71
44138;BME280;29800;55.942;37.314;2024-01-27T09:12:55;99664.81;;;-2.59;67.37
44138;BME280;29800;55.942;37.314;2024-01-27T09:15:21;99671.00;;;-2.50;67.37
44138;BME280;29800;55.942;37.314;2024-01-27T09:17:48;99673.84;;;-2.44;66.62
44138;BME280;29800;55.942;37.314;2024-01-27T09:20:15;99679.88;;;-2.33;66.66
44138;BME280;29800;55.942;37.314;2024-01-27T09:22:42;99671.66;;;-2.24;66.43
44138;BME280;29800;55.942;37.314;2024-01-27T09:25:11;99680.72;;;-2.16;66.33
44138;BME280;29800;55.942;37.314;2024-01-27T09:27:37;99682.53;;;-2.09;65.98
44138;BME280;29800;55.942;37.314;2024-01-27T09:30:04;99679.84;;;-2.00;65.86
44138;BME280;29800;55.942;37.314;2024-01-27T09:32:31;99687.53;;;-1.97;66.07
44138;BME280;29800;55.942;37.314;2024-01-27T09:34:57;99690.22;;;-1.89;65.71
44138;BME280;29800;55.942;37.314;2024-01-27T09:37:24;99701.28;;;-1.84;65.14
44138;BME280;29800;55.942;37.314;2024-01-27T09:39:50;99695.56;;;-1.81;65.04
44138;BME280;29800;55.942;37.314;2024-01-27T09:42:20;99684.47;;;-1.70;65.30
44138;BME280;29800;55.942;37.314;2024-01-27T09:44:48;99694.53;;;-1.63;65.03
44138;BME280;29800;55.942;37.314;2024-01-27T09:47:18;99695.34;;;-1.55;64.56
44138;BME280;29800;55.942;37.314;2024-01-27T09:49:46;99698.84;;;-1.54;64.59
44138;BME280;29800;55.942;37.314;2024-01-27T09:52:14;99701.34;;;-1.53;64.44
44138;BME280;29800;55.942;37.314;2024-01-27T09:54:41;99711.59;;;-1.48;64.07
44138;BME280;29800;55.942;37.314;2024-01-27T09:57:09;99709.03;;;-1.41;63.86
44138;BME280;29800;55.942;37.314;2024-01-27T09:59:40;99714.91;;;-1.38;63.84
44138;BME280;29800;55.942;37.314;2024-01-27T10:02:11;99714.38;;;-1.33;63.63
44138;BME280;29800;55.942;37.314;2024-01-27T10:04:41;99713.56;;;-1.34;63.21
44138;BME280;29800;55.942;37.314;2024-01-27T10:07:08;99711.69;;;-1.33;63.01
44138;BME280;29800;55.942;37.314;2024-01-27T10:09:35;99710.34;;;-1.29;63.28
44138;BME280;29800;55.942;37.314;2024-01-27T10:12:04;99707.97;;;-1.24;63.25
44138;BME280;29800;55.942;37.314;2024-01-27T10:14:40;99718.69;;;-1.16;63.27
44138;BME280;29800;55.942;37.314;2024-01-27T10:17:11;99720.91;;;-1.19;63.32
44138;BME280;29800;55.942;37.314;2024-01-27T10:19:38;99722.94;;;-1.21;63.20
44138;BME280;29800;55.942;37.314;2024-01-27T10:22:04;99724.25;;;-1.17;63.26
44138;BME280;29800;55.942;37.314;2024-01-27T10:24:31;99727.91;;;-1.18;62.93
44138;BME280;29800;55.942;37.314;2024-01-27T10:27:02;99732.59;;;-1.12;63.40
44138;BME280;29800;55.942;37.314;2024-01-27T10:29:30;99729.25;;;-1.14;63.27
44138;BME280;29800;55.942;37.314;2024-01-27T10:32:07;99725.34;;;-1.03;63.36
44138;BME280;29800;55.942;37.314;2024-01-27T10:34:34;99734.25;;;-1.03;62.50
44138;BME280;29800;55.942;37.314;2024-01-27T10:37:01;99735.38;;;-0.97;62.48
44138;BME280;29800;55.942;37.314;2024-01-27T10:39:27;99738.75;;;-0.95;62.02
44138;BME280;29800;55.942;37.314;2024-01-27T10:41:54;99737.91;;;-0.96;62.35
44138;BME280;29800;55.942;37.314;2024-01-27T10:44:20;99740.25;;;-0.93;62.71
44138;BME280;29800;55.942;37.314;2024-01-27T10:46:48;99747.63;;;-0.86;62.12
44138;BME280;29800;55.942;37.314;2024-01-27T10:49:16;99743.88;;;-0.85;61.67
44138;BME280;29800;55.942;37.314;2024-01-27T10:51:55;99741.03;;;-0.84;61.63
44138;BME280;29800;55.942;37.314;2024-01-27T10:54:26;99752.41;;;-0.73;61.58
44138;BME280;29800;55.942;37.314;2024-01-27T10:56:55;99747.88;;;-0.73;61.37
44138;BME280;29800;55.942;37.314;2024-01-27T10:59:22;99748.22;;;-0.76;61.10
44138;BME280;29800;55.942;37.314;2024-01-27T11:01:49;99752.78;;;-0.77;61.08
44138;BME280;29800;55.942;37.314;2024-01-27T11:04:20;99757.28;;;-0.77;61.43
44138;BME280;29800;55.942;37.314;2024-01-27T11:06:50;99752.06;;;-0.70;61.42
44138;BME280;29800;55.942;37.314;2024-01-27T11:09:18;99751.72;;;-0.76;61.32
44138;BME280;29800;55.942;37.314;2024-01-27T11:11:45;99749.22;;;-0.77;61.22
44138;BME280;29800;55.942;37.314;2024-01-27T11:14:12;99753.94;;;-0.79;61.47
44138;BME280;29800;55.942;37.314;2024-01-27T11:16:38;99760.53;;;-0.82;61.20
44138;BME280;29800;55.942;37.314;2024-01-27T11:19:11;99760.34;;;-0.80;61.38
44138;BME280;29800;55.942;37.314;2024-01-27T11:21:38;99763.03;;;-0.80;61.53
44138;BME280;29800;55.942;37.314;2024-01-27T11:24:17;99768.34;;;-0.64;61.53
44138;BME280;29800;55.942;37.314;2024-01-27T11:26:44;99774.28;;;-0.77;61.10
44138;BME280;29800;55.942;37.314;2024-01-27T11:29:11;99773.78;;;-0.80;61.30
44138;BME280;29800;55.942;37.314;2024-01-27T11:31:45;99775.44;;;-0.79;61.59
44138;BME280;29800;55.942;37.314;2024-01-27T11:34:13;99779.53;;;-0.83;61.47
44138;BME280;29800;55.942;37.314;2024-01-27T11:36:42;99780.81;;;-0.79;61.07
44138;BME280;29800;55.942;37.314;2024-01-27T11:39:35;99779.38;;;-0.59;61.62
44138;BME280;29800;55.942;37.314;2024-01-27T11:44:38;99789.84;;;-0.64;60.74
44138;BME280;29800;55.942;37.314;2024-01-27T11:47:19;99795.53;;;-0.59;60.89
44138;BME280;29800;55.942;37.314;2024-01-27T11:49:53;99798.22;;;-0.59;61.18
44138;BME280;29800;55.942;37.314;2024-01-27T11:52:20;99800.94;;;-0.67;60.62
44138;BME280;29800;55.942;37.314;2024-01-27T11:54:59;99802.94;;;-0.69;61.32
44138;BME280;29800;55.942;37.314;2024-01-27T11:57:26;99801.06;;;-0.91;60.76
44138;BME280;29800;55.942;37.314;2024-01-27T11:59:53;99800.09;;;-1.07;61.04
44138;BME280;29800;55.942;37.314;2024-01-27T12:02:20;99806.00;;;-1.20;61.27
44138;BME280;29800;55.942;37.314;2024-01-27T12:04:47;99816.44;;;-1.33;61.76
44138;BME280;29800;55.942;37.314;2024-01-27T12:07:14;99818.47;;;-1.43;62.32
44138;BME280;29800;55.942;37.314;2024-01-27T12:09:41;99819.16;;;-1.50;62.46
44138;BME280;29800;55.942;37.314;2024-01-27T12:12:08;99827.53;;;-1.53;62.70
44138;BME280;29800;55.942;37.314;2024-01-27T12:25:55;99856.91;;;-1.51;65.69
44138;BME280;29800;55.942;37.314;2024-01-27T12:28:22;99852.56;;;-1.52;64.36
44138;BME280;29800;55.942;37.314;2024-01-27T12:30:52;99860.94;;;-1.55;63.93
44138;BME280;29800;55.942;37.314;2024-01-27T12:33:19;99871.34;;;-1.69;63.64
44138;BME280;29800;55.942;37.314;2024-01-27T12:35:50;99867.31;;;-1.81;64.09
44138;BME280;29800;55.942;37.314;2024-01-27T12:38:19;99867.63;;;-1.84;64.41
44138;BME280;29800;55.942;37.314;2024-01-27T12:40:45;99873.31;;;-1.95;64.43
44138;BME280;29800;55.942;37.314;2024-01-27T12:43:12;99880.38;;;-2.03;64.74
44138;BME280;29800;55.942;37.314;2024-01-27T12:45:38;99878.34;;;-2.09;64.65
44138;BME280;29800;55.942;37.314;2024-01-27T12:48:04;99886.72;;;-2.12;64.88
44138;BME280;29800;55.942;37.314;2024-01-27T12:50:31;99886.69;;;-2.20;65.20
44138;BME280;29800;55.942;37.314;2024-01-27T12:52:59;99899.09;;;-2.27;64.91
44138;BME280;29800;55.942;37.314;2024-01-27T12:55:25;99897.41;;;-2.28;65.21
44138;BME280;29800;55.942;37.314;2024-01-27T12:57:51;99898.59;;;-2.31;65.46
44138;BME280;29800;55.942;37.314;2024-01-27T13:00:18;99904.78;;;-2.30;65.41
44138;BME280;29800;55.942;37.314;2024-01-27T13:02:45;99897.72;;;-2.31;65.49